Wargrave, United Kingdom
Current Conditions -  °F | °C
As of 8:50 PM on Tuesday 25 Nov 2014 (Local Time) from EGUB Reporting Station
Light Rain Light Rain  
Wind Chill: 37°   Ceiling: 4000
Heat Index: 43°   Visibility: 3mi
Dew Point: 41°   Wind: 9mph
Humidity: 93%   Direction: 110°ESE
Pressure: 30"   Gusts: NA
Location:  51.5°N, 0.87°W
Report Text: EGUB 252050Z 11008KT 5000 -RA FEW015 BKN040 06/05 Q1016 RERA WHT
Loading
Personal Weather Stations






























Interactive Weather Map New forecast layout! Learn more

10-Day Weather Forecast

Advertisements
Track Severe Weather on mobile